createdAt,value
2023-02-11T00:01:26.903Z,2.69
2023-02-11T00:03:55.835Z,2.65
2023-02-11T00:06:24.945Z,2.87
2023-02-11T00:08:52.922Z,2.59
2023-02-11T00:11:24.618Z,2.69
2023-02-11T00:13:53.083Z,2.62
2023-02-11T00:16:21.792Z,2.51
2023-02-11T00:18:50.543Z,2.83
2023-02-11T00:21:21.828Z,3.09
2023-02-11T00:23:49.959Z,3.30
2023-02-11T00:26:21.669Z,2.84
2023-02-11T00:28:52.231Z,2.33
2023-02-11T00:31:22.598Z,2.36
2023-02-11T00:33:51.449Z,2.18
2023-02-11T00:36:27.305Z,1.98
2023-02-11T00:38:57.416Z,2.00
2023-02-11T00:41:26.288Z,1.92
2023-02-11T00:43:54.256Z,1.78
2023-02-11T00:46:22.938Z,2.00
2023-02-11T00:48:57.984Z,2.02
2023-02-11T00:51:27.853Z,1.93
2023-02-11T00:53:55.871Z,1.80
2023-02-11T00:56:24.327Z,1.75
2023-02-11T00:58:52.329Z,1.90
2023-02-11T01:01:20.519Z,2.20
2023-02-11T01:03:48.510Z,2.09
2023-02-11T01:06:17.053Z,1.75
2023-02-11T01:08:44.977Z,1.54
2023-02-11T01:11:15.954Z,1.81
2023-02-11T01:13:47.021Z,1.87
2023-02-11T01:16:17.703Z,1.78
2023-02-11T01:18:46.588Z,1.79
2023-02-11T01:21:15.165Z,1.96
2023-02-11T01:23:44.254Z,2.05
2023-02-11T01:26:13.150Z,2.02
2023-02-11T01:28:41.568Z,1.90
2023-02-11T01:31:09.948Z,1.93
2023-02-11T01:33:38.120Z,2.02
2023-02-11T01:36:08.123Z,1.90
2023-02-11T01:38:36.630Z,1.70
2023-02-11T01:41:10.521Z,1.63
2023-02-11T01:43:43.476Z,1.57
2023-02-11T01:46:18.602Z,1.58
2023-02-11T01:48:52.272Z,1.64
2023-02-11T01:51:30.897Z,1.75
2023-02-11T01:54:17.857Z,1.60
2023-02-11T01:57:08.305Z,1.70
2023-02-11T02:00:05.763Z,1.72
2023-02-11T02:02:43.771Z,1.61
2023-02-11T02:05:52.232Z,1.60
2023-02-11T02:08:39.744Z,1.59
2023-02-11T02:11:08.207Z,1.60
2023-02-11T02:13:38.485Z,1.49
2023-02-11T02:16:12.684Z,1.50
2023-02-11T02:18:50.053Z,1.40
2023-02-11T02:21:44.644Z,1.49
2023-02-11T02:24:33.648Z,1.49
2023-02-11T02:27:04.561Z,1.35
2023-02-11T02:29:53.872Z,1.36
2023-02-11T02:32:40.576Z,1.40
2023-02-11T02:35:42.861Z,1.58
2023-02-11T02:38:21.461Z,1.44
2023-02-11T02:40:55.331Z,1.40
2023-02-11T02:43:26.432Z,1.40
2023-02-11T02:45:54.761Z,1.31
2023-02-11T02:48:36.056Z,1.41
2023-02-11T02:51:33.087Z,1.37
2023-02-11T02:54:33.535Z,1.37
2023-02-11T02:57:22.917Z,1.42
2023-02-11T02:59:59.858Z,1.34
2023-02-11T03:02:35.257Z,1.32
2023-02-11T03:05:16.756Z,1.86
2023-02-11T03:08:08.649Z,1.87
2023-02-11T03:10:41.048Z,1.53
2023-02-11T03:13:09.119Z,1.51
2023-02-11T03:15:44.785Z,1.46
2023-02-11T03:18:16.453Z,1.50
2023-02-11T03:20:48.384Z,1.58
2023-02-11T03:23:28.187Z,1.53
2023-02-11T03:26:34.875Z,1.28
2023-02-11T03:29:03.754Z,1.15
2023-02-11T03:31:40.767Z,1.27
2023-02-11T03:34:35.121Z,1.14
2023-02-11T03:37:02.965Z,1.24
2023-02-11T03:39:39.643Z,1.47
2023-02-11T03:42:11.046Z,1.37
2023-02-11T03:44:50.427Z,1.09
2023-02-11T03:47:23.974Z,1.36
2023-02-11T03:49:53.695Z,1.50
2023-02-11T03:52:23.548Z,1.06
2023-02-11T03:54:56.466Z,0.90
2023-02-11T03:57:24.646Z,1.35
2023-02-11T03:59:54.082Z,1.39
2023-02-11T04:02:27.244Z,1.22
2023-02-11T04:04:55.887Z,1.21
2023-02-11T04:07:24.568Z,1.20
2023-02-11T04:09:53.265Z,0.95
2023-02-11T04:12:21.397Z,1.29
2023-02-11T04:14:49.254Z,1.31
2023-02-11T04:17:17.635Z,0.84
2023-02-11T04:19:45.575Z,0.75
2023-02-11T04:22:13.585Z,0.64
2023-02-11T04:24:41.585Z,0.66
2023-02-11T04:27:09.915Z,0.62
2023-02-11T04:29:37.975Z,0.60
2023-02-11T04:32:06.152Z,0.60
2023-02-11T04:34:34.095Z,0.71
2023-02-11T04:37:01.949Z,0.85
2023-02-11T04:39:29.885Z,0.76
2023-02-11T04:41:57.699Z,0.72
2023-02-11T04:44:25.642Z,0.58
2023-02-11T04:46:53.861Z,0.59
2023-02-11T04:49:21.984Z,0.76
2023-02-11T04:51:49.879Z,0.72
2023-02-11T04:54:18.228Z,0.77
2023-02-11T04:56:46.080Z,0.74
2023-02-11T04:59:13.980Z,0.72
2023-02-11T05:01:42.347Z,0.84
2023-02-11T05:04:10.325Z,0.63
2023-02-11T05:06:40.058Z,0.73
2023-02-11T05:09:08.316Z,0.69
2023-02-11T05:11:37.248Z,0.40
2023-02-11T05:14:05.854Z,0.44
2023-02-11T05:16:34.547Z,0.62
2023-02-11T05:19:02.348Z,0.60
2023-02-11T05:21:30.210Z,0.60
2023-02-11T05:23:58.108Z,0.82
2023-02-11T05:26:26.663Z,0.55
2023-02-11T05:28:54.428Z,0.36
2023-02-11T05:31:22.349Z,0.38
2023-02-11T05:33:50.227Z,0.35
2023-02-11T05:36:18.117Z,0.39
2023-02-11T05:38:45.877Z,0.35
2023-02-11T05:41:13.678Z,0.26
2023-02-11T05:43:41.495Z,0.38
2023-02-11T05:46:09.455Z,0.49
2023-02-11T05:48:37.342Z,0.40
2023-02-11T05:51:05.329Z,0.39
2023-02-11T05:53:33.118Z,0.55
2023-02-11T05:56:01.438Z,0.75
2023-02-11T05:58:29.450Z,0.55
2023-02-11T06:00:57.377Z,0.24
2023-02-11T06:03:25.466Z,0.16
2023-02-11T06:05:53.538Z,0.19
2023-02-11T06:08:21.637Z,0.42
2023-02-11T06:10:49.488Z,0.26
2023-02-11T06:13:18.867Z,0.43
2023-02-11T06:15:59.582Z,0.22
2023-02-11T06:18:27.658Z,0.45
2023-02-11T06:20:56.216Z,0.56
2023-02-11T06:23:24.049Z,0.33
2023-02-11T06:25:52.999Z,0.25
2023-02-11T06:28:21.233Z,0.32
2023-02-11T06:30:49.287Z,0.39
2023-02-11T06:33:17.220Z,0.51
2023-02-11T06:35:45.091Z,0.39
2023-02-11T06:38:13.060Z,0.24
2023-02-11T06:40:41.138Z,0.18
2023-02-11T06:43:08.997Z,0.17
2023-02-11T06:45:36.850Z,0.07
2023-02-11T06:48:04.819Z,0.18
2023-02-11T06:50:32.960Z,0.16
2023-02-11T06:53:00.945Z,0.12
2023-02-11T06:55:28.939Z,0.44
2023-02-11T06:57:57.014Z,0.34
2023-02-11T07:00:25.799Z,0.50
2023-02-11T07:02:53.898Z,0.52
2023-02-11T07:05:21.889Z,0.57
2023-02-11T07:07:49.846Z,0.66
2023-02-11T07:10:17.788Z,0.68
2023-02-11T07:12:45.854Z,0.96
2023-02-11T07:15:13.779Z,1.13
2023-02-11T07:17:41.691Z,1.10
2023-02-11T07:20:12.602Z,1.43
2023-02-11T07:22:40.500Z,1.49
2023-02-11T07:25:08.525Z,1.53
2023-02-11T07:27:36.598Z,1.60
2023-02-11T07:30:07.260Z,1.37
2023-02-11T07:32:35.444Z,1.55
2023-02-11T07:35:04.379Z,1.76
2023-02-11T07:37:34.784Z,1.73
2023-02-11T07:40:02.842Z,1.75
2023-02-11T07:42:30.716Z,1.80
2023-02-11T07:44:58.569Z,1.87
2023-02-11T07:47:26.521Z,2.07
2023-02-11T07:49:56.554Z,2.35
2023-02-11T07:52:24.966Z,2.34
2023-02-11T07:54:52.867Z,2.83
2023-02-11T07:57:20.822Z,3.57
2023-02-11T07:59:48.669Z,5.38
2023-02-11T08:02:16.591Z,7.19
2023-02-11T08:04:47.226Z,9.04
2023-02-11T08:07:16.979Z,9.52
2023-02-11T08:09:45.254Z,10.11
2023-02-11T08:12:13.304Z,10.87
2023-02-11T08:14:41.116Z,11.33
2023-02-11T08:17:08.915Z,12.19
2023-02-11T08:19:37.362Z,12.47
2023-02-11T08:22:05.268Z,13.07
2023-02-11T08:24:33.138Z,13.26
2023-02-11T08:27:00.953Z,12.50
2023-02-11T08:29:28.780Z,12.08
2023-02-11T08:31:56.738Z,11.36
2023-02-11T08:34:24.743Z,10.36
2023-02-11T08:36:52.711Z,9.11
2023-02-11T08:39:22.948Z,8.10
2023-02-11T08:41:56.832Z,7.56
2023-02-11T08:44:25.146Z,7.27
2023-02-11T08:46:53.940Z,6.75
2023-02-11T08:49:23.672Z,6.71
2023-02-11T08:51:51.673Z,6.41
2023-02-11T08:54:19.653Z,6.46
2023-02-11T08:56:52.301Z,6.63
2023-02-11T08:59:20.363Z,6.63
2023-02-11T09:01:48.693Z,6.67
2023-02-11T09:04:16.735Z,6.20
2023-02-11T09:06:44.639Z,5.98
2023-02-11T09:09:14.212Z,6.18
2023-02-11T09:11:43.312Z,6.50
2023-02-11T09:14:23.275Z,6.77
2023-02-11T09:16:51.963Z,7.03
2023-02-11T09:19:20.670Z,7.13
2023-02-11T09:21:48.607Z,6.55
2023-02-11T09:24:16.508Z,7.09
2023-02-11T09:26:44.727Z,7.61
2023-02-11T09:29:13.115Z,7.94
2023-02-11T09:31:41.108Z,8.12
2023-02-11T09:34:09.082Z,8.43
2023-02-11T09:36:39.291Z,8.69
2023-02-11T09:39:18.449Z,8.93
2023-02-11T09:41:46.262Z,8.47
2023-02-11T09:44:40.384Z,8.63
2023-02-11T09:47:30.238Z,8.60
2023-02-11T09:50:14.630Z,9.01
2023-02-11T09:53:07.374Z,9.01
2023-02-11T09:55:44.134Z,8.85
2023-02-11T09:58:35.346Z,9.52
2023-02-11T10:01:22.826Z,9.71
2023-02-11T10:04:05.153Z,10.21
2023-02-11T10:06:41.480Z,10.26
2023-02-11T10:09:43.080Z,9.85
2023-02-11T10:12:13.775Z,10.04
2023-02-11T10:15:11.471Z,10.05
2023-02-11T10:18:04.831Z,10.99
2023-02-11T10:20:49.336Z,10.90
2023-02-11T10:23:24.949Z,11.64
2023-02-11T10:25:54.971Z,12.33
2023-02-11T10:28:37.104Z,12.75
2023-02-11T10:31:11.979Z,13.07
2023-02-11T10:34:05.188Z,12.81
2023-02-11T10:36:40.181Z,13.09
2023-02-11T10:39:27.120Z,12.90
2023-02-11T10:41:59.915Z,12.72
2023-02-11T10:44:38.380Z,13.18
2023-02-11T10:47:22.767Z,12.69
2023-02-11T10:49:50.828Z,12.61
2023-02-11T10:52:24.861Z,12.63
2023-02-11T10:55:03.409Z,12.84
2023-02-11T10:57:38.163Z,13.08
2023-02-11T11:00:39.367Z,13.74
2023-02-11T11:03:29.122Z,15.43
2023-02-11T11:06:00.749Z,17.06
2023-02-11T11:08:47.554Z,17.58
2023-02-11T11:11:21.752Z,19.64
2023-02-11T11:13:52.731Z,20.30
2023-02-11T11:16:32.875Z,21.03
2023-02-11T11:19:06.571Z,20.72
2023-02-11T11:21:41.077Z,22.17
2023-02-11T11:24:16.901Z,21.56
2023-02-11T11:26:57.400Z,22.28
2023-02-11T11:29:35.840Z,20.91
2023-02-11T11:32:15.296Z,21.13
2023-02-11T11:34:48.904Z,21.48
2023-02-11T11:37:37.189Z,21.27
2023-02-11T11:40:23.776Z,22.24
2023-02-11T11:43:14.321Z,20.88
2023-02-11T11:45:56.746Z,19.24
2023-02-11T11:48:46.004Z,17.33
2023-02-11T11:51:13.996Z,16.96
2023-02-11T11:54:04.992Z,16.30
2023-02-11T11:56:37.092Z,15.40
2023-02-11T11:59:17.406Z,14.64
2023-02-11T12:02:02.394Z,14.75
2023-02-11T12:05:01.085Z,15.11
2023-02-11T12:07:56.802Z,15.39
2023-02-11T12:10:46.505Z,15.44
2023-02-11T12:13:32.685Z,15.99
2023-02-11T12:16:21.815Z,17.96
2023-02-11T12:19:17.262Z,19.58
2023-02-11T12:22:21.992Z,19.38
2023-02-11T12:25:08.242Z,17.81
2023-02-11T12:28:10.052Z,18.40
2023-02-11T12:30:57.185Z,18.68
2023-02-11T12:33:40.412Z,18.70
2023-02-11T12:36:15.316Z,19.21
2023-02-11T12:39:19.487Z,18.94
2023-02-11T12:42:15.174Z,18.14
2023-02-11T12:45:28.042Z,19.24
2023-02-11T12:48:26.495Z,21.54
2023-02-11T12:51:21.757Z,23.12
2023-02-11T12:54:24.129Z,25.19
2023-02-11T12:56:54.934Z,25.27
2023-02-11T12:59:25.495Z,25.56
2023-02-11T13:01:55.262Z,26.42
2023-02-11T13:04:29.235Z,26.58
2023-02-11T13:07:02.886Z,26.90
2023-02-11T13:09:39.397Z,27.52
2023-02-11T13:12:47.499Z,28.69
2023-02-11T13:15:16.595Z,28.42
2023-02-11T13:17:57.589Z,27.49
2023-02-11T13:20:36.184Z,24.35
2023-02-11T13:23:24.528Z,24.65
2023-02-11T13:26:05.838Z,26.14
2023-02-11T13:28:54.218Z,26.82
2023-02-11T13:31:27.096Z,27.63
2023-02-11T13:33:55.278Z,30.55
2023-02-11T13:36:26.579Z,31.49
2023-02-11T13:38:58.846Z,29.29
2023-02-11T13:41:31.309Z,30.45
2023-02-11T13:44:06.383Z,31.40
2023-02-11T13:46:59.499Z,30.25
2023-02-11T13:49:32.049Z,29.24
2023-02-11T13:52:03.785Z,31.15
2023-02-11T13:54:40.815Z,29.33
2023-02-11T13:57:20.565Z,30.14
2023-02-11T13:59:49.624Z,31.38
2023-02-11T14:02:36.150Z,30.70
2023-02-11T14:05:22.208Z,29.59
2023-02-11T14:08:41.840Z,28.98
2023-02-11T14:11:29.744Z,31.43
2023-02-11T14:14:14.732Z,30.77
2023-02-11T14:17:08.196Z,30.78
2023-02-11T14:19:44.747Z,29.03
2023-02-11T14:22:16.991Z,27.72
2023-02-11T14:25:01.299Z,28.68
2023-02-11T14:27:42.757Z,28.47
2023-02-11T14:30:23.559Z,27.52
2023-02-11T14:33:13.918Z,28.58
2023-02-11T14:36:01.898Z,28.02
2023-02-11T14:38:38.278Z,27.22
2023-02-11T14:41:21.313Z,27.61
2023-02-11T14:43:58.109Z,27.89
2023-02-11T14:46:27.988Z,27.08
2023-02-11T14:48:59.098Z,26.29
2023-02-11T14:51:40.717Z,25.83
2023-02-11T14:54:17.796Z,25.14
2023-02-11T14:56:47.079Z,24.93
2023-02-11T14:59:23.191Z,24.50
2023-02-11T15:01:54.753Z,24.49
2023-02-11T15:04:28.643Z,24.24
2023-02-11T15:06:59.678Z,24.32
2023-02-11T15:09:38.749Z,24.56
2023-02-11T15:12:15.927Z,24.82
2023-02-11T15:14:48.714Z,24.30
2023-02-11T15:17:21.348Z,23.81
2023-02-11T15:19:53.473Z,23.22
2023-02-11T15:22:26.379Z,23.29
2023-02-11T15:25:11.577Z,22.71
2023-02-11T15:27:58.829Z,21.48
2023-02-11T15:30:34.476Z,21.03
2023-02-11T15:33:25.710Z,20.42
2023-02-11T15:35:53.634Z,19.92
2023-02-11T15:38:21.471Z,19.36
2023-02-11T15:40:55.669Z,19.03
2023-02-11T15:43:23.690Z,18.18
2023-02-11T15:45:51.624Z,17.73
2023-02-11T15:48:24.482Z,16.68
2023-02-11T15:51:03.315Z,16.42
2023-02-11T15:53:40.717Z,16.40
2023-02-11T15:56:18.466Z,16.07
2023-02-11T15:58:49.823Z,15.51
2023-02-11T16:01:17.890Z,15.21
2023-02-11T16:03:51.080Z,14.84
2023-02-11T16:06:26.118Z,14.44
2023-02-11T16:09:11.361Z,14.17
2023-02-11T16:11:48.222Z,14.15
2023-02-11T16:14:31.285Z,13.91
2023-02-11T16:17:06.884Z,13.72
2023-02-11T16:19:36.336Z,13.34
2023-02-11T16:22:10.774Z,13.31
2023-02-11T16:24:39.733Z,12.79
2023-02-11T16:27:22.870Z,12.73
2023-02-11T16:29:52.180Z,12.71
2023-02-11T16:32:23.504Z,12.72
2023-02-11T16:34:52.673Z,12.41
2023-02-11T16:37:21.016Z,12.36
2023-02-11T16:39:48.933Z,12.23
2023-02-11T16:42:16.935Z,12.09
2023-02-11T16:44:44.866Z,11.85
2023-02-11T16:47:23.979Z,11.87
2023-02-11T16:49:52.277Z,11.62
2023-02-11T16:52:21.979Z,11.49
2023-02-11T16:54:49.961Z,11.33
2023-02-11T16:57:23.443Z,11.19
2023-02-11T16:59:52.523Z,11.10
2023-02-11T17:02:36.161Z,11.18
2023-02-11T17:05:07.303Z,10.99
2023-02-11T17:07:35.683Z,11.07
2023-02-11T17:10:03.897Z,11.16
2023-02-11T17:12:31.841Z,11.41
2023-02-11T17:15:00.041Z,11.23
2023-02-11T17:17:29.533Z,10.89
2023-02-11T17:19:57.553Z,10.91
2023-02-11T17:22:25.424Z,10.77
2023-02-11T17:24:56.076Z,10.92
2023-02-11T17:27:23.948Z,10.61
2023-02-11T17:29:51.902Z,10.58
2023-02-11T17:32:19.867Z,10.37
2023-02-11T17:34:47.987Z,10.37
2023-02-11T17:37:16.381Z,10.35
2023-02-11T17:39:44.903Z,10.37
2023-02-11T17:42:15.305Z,9.86
2023-02-11T17:44:44.580Z,9.47
2023-02-11T17:47:14.024Z,9.96
2023-02-11T17:49:42.318Z,9.47
2023-02-11T17:52:10.381Z,9.69
2023-02-11T17:54:38.755Z,9.94
2023-02-11T17:57:06.940Z,9.97
2023-02-11T17:59:35.837Z,10.08
2023-02-11T18:02:04.376Z,10.00
2023-02-11T18:04:32.374Z,10.09
2023-02-11T18:07:00.349Z,10.01
2023-02-11T18:09:28.288Z,9.80
2023-02-11T18:11:56.229Z,9.73
2023-02-11T18:14:24.519Z,9.63
2023-02-11T18:16:53.332Z,9.74
2023-02-11T18:19:21.714Z,9.63
2023-02-11T18:21:51.140Z,9.47
2023-02-11T18:24:19.114Z,9.47
2023-02-11T18:26:46.890Z,9.09
2023-02-11T18:29:14.880Z,8.86
2023-02-11T18:31:42.795Z,9.17
2023-02-11T18:34:12.166Z,9.30
2023-02-11T18:36:40.073Z,9.34
2023-02-11T18:39:07.935Z,9.21
2023-02-11T18:41:35.873Z,9.01
2023-02-11T18:44:05.140Z,8.96
2023-02-11T18:46:58.288Z,9.05
2023-02-11T18:49:26.506Z,9.02
2023-02-11T18:51:55.132Z,8.49
2023-02-11T18:54:23.112Z,8.16
2023-02-11T18:56:51.133Z,8.61
2023-02-11T18:59:19.099Z,8.82
2023-02-11T19:01:47.168Z,8.68
2023-02-11T19:04:20.293Z,8.19
2023-02-11T19:06:49.792Z,7.83
2023-02-11T19:09:20.901Z,7.72
2023-02-11T19:11:52.493Z,7.69
2023-02-11T19:14:27.422Z,7.58
2023-02-11T19:16:57.817Z,7.58
2023-02-11T19:19:29.015Z,7.57
2023-02-11T19:21:58.925Z,7.50
2023-02-11T19:24:28.663Z,7.63
2023-02-11T19:26:59.405Z,7.60
2023-02-11T19:29:28.708Z,7.45
2023-02-11T19:31:57.089Z,7.18
2023-02-11T19:34:25.471Z,7.09
2023-02-11T19:36:54.655Z,7.11
2023-02-11T19:39:25.072Z,7.06
2023-02-11T19:41:53.733Z,7.15
2023-02-11T19:44:21.791Z,7.38
2023-02-11T19:46:52.942Z,7.10
2023-02-11T19:49:26.651Z,6.91
2023-02-11T19:51:58.382Z,6.80
2023-02-11T19:54:27.413Z,7.03
2023-02-11T19:56:58.042Z,7.64
2023-02-11T19:59:26.190Z,7.62
2023-02-11T20:01:54.498Z,6.91
2023-02-11T20:04:24.462Z,6.50
2023-02-11T20:06:52.451Z,6.50
2023-02-11T20:09:20.508Z,6.57
2023-02-11T20:11:49.572Z,6.41
2023-02-11T20:14:17.699Z,6.26
2023-02-11T20:16:49.735Z,6.54
2023-02-11T20:19:20.621Z,6.51
2023-02-11T20:21:51.732Z,6.45
2023-02-11T20:24:20.534Z,6.88
2023-02-11T20:26:49.376Z,6.43
2023-02-11T20:29:18.374Z,6.29
2023-02-11T20:31:46.768Z,6.33
2023-02-11T20:34:17.208Z,6.20
2023-02-11T20:36:52.114Z,6.08
2023-02-11T20:39:22.564Z,6.37
2023-02-11T20:41:52.079Z,6.08
2023-02-11T20:44:22.539Z,5.93
2023-02-11T20:46:51.306Z,6.07
2023-02-11T20:49:21.785Z,5.89
2023-02-11T20:51:50.044Z,6.18
2023-02-11T20:54:20.360Z,5.89
2023-02-11T20:56:51.369Z,5.80
2023-02-11T20:59:21.320Z,5.86
2023-02-11T21:01:53.757Z,5.87
2023-02-11T21:04:25.218Z,6.28
2023-02-11T21:06:59.472Z,6.42
2023-02-11T21:09:30.912Z,5.98
2023-02-11T21:11:59.078Z,5.76
2023-02-11T21:14:29.401Z,5.65
2023-02-11T21:16:57.723Z,5.89
2023-02-11T21:19:25.989Z,5.74
2023-02-11T21:21:55.341Z,5.51
2023-02-11T21:24:23.988Z,5.36
2023-02-11T21:26:52.107Z,5.32
2023-02-11T21:29:20.226Z,5.34
2023-02-11T21:31:48.297Z,5.40
2023-02-11T21:34:16.415Z,5.41
2023-02-11T21:36:45.408Z,5.38
2023-02-11T21:39:14.105Z,5.48
2023-02-11T21:41:42.214Z,5.65
2023-02-11T21:44:10.275Z,5.52
2023-02-11T21:46:38.336Z,5.52
2023-02-11T21:49:06.449Z,5.53
2023-02-11T21:51:34.506Z,5.64
2023-02-11T21:54:03.339Z,5.75
2023-02-11T21:56:33.511Z,5.38
2023-02-11T21:59:02.545Z,5.75
2023-02-11T22:01:32.815Z,5.26
2023-02-11T22:04:01.423Z,5.17
2023-02-11T22:06:31.685Z,5.18
2023-02-11T22:09:02.952Z,5.10
2023-02-11T22:11:31.005Z,5.05
2023-02-11T22:13:59.441Z,5.02
2023-02-11T22:16:28.507Z,4.99
2023-02-11T22:18:58.858Z,5.45
2023-02-11T22:21:26.977Z,5.70
2023-02-11T22:23:56.612Z,5.16
2023-02-11T22:26:26.711Z,4.87
2023-02-11T22:28:55.209Z,4.92
2023-02-11T22:31:25.870Z,5.05
2023-02-11T22:33:54.101Z,4.80
2023-02-11T22:36:25.222Z,4.82
2023-02-11T22:38:53.883Z,4.81
2023-02-11T22:41:23.580Z,4.80
2023-02-11T22:43:51.497Z,4.88
2023-02-11T22:46:20.142Z,5.01
2023-02-11T22:48:49.215Z,5.24
2023-02-11T22:51:22.986Z,5.04
2023-02-11T22:54:03.043Z,4.92
2023-02-11T22:56:33.037Z,5.12
2023-02-11T22:59:04.738Z,5.16
2023-02-11T23:01:33.813Z,5.14
2023-02-11T23:04:04.381Z,5.04
2023-02-11T23:06:32.749Z,5.22
2023-02-11T23:09:01.376Z,4.99
2023-02-11T23:11:31.289Z,4.92
2023-02-11T23:13:59.318Z,4.97
2023-02-11T23:16:33.583Z,5.11
2023-02-11T23:19:05.321Z,4.85
2023-02-11T23:21:36.667Z,4.82
2023-02-11T23:24:11.946Z,4.82
2023-02-11T23:26:41.266Z,4.77
2023-02-11T23:29:10.304Z,4.75
2023-02-11T23:31:43.522Z,4.64
2023-02-11T23:34:12.736Z,4.65
2023-02-11T23:36:40.660Z,4.69
2023-02-11T23:39:08.629Z,4.56
2023-02-11T23:41:36.435Z,4.75
2023-02-11T23:44:04.405Z,4.92
2023-02-11T23:46:32.384Z,4.85
2023-02-11T23:49:00.465Z,4.78
2023-02-11T23:51:28.493Z,4.70
2023-02-11T23:53:57.357Z,4.61
2023-02-11T23:56:27.839Z,4.69
2023-02-11T23:58:58.812Z,4.53
